Time;durP1;ratioP1;P1;durP2;ratioP2;P2;SDS_P1;SDS_P2;PMS_P1;PMS_P2;Temp;Humidity;BMP_temperature;BMP_pressure;BME280_temperature;BME280_humidity;BME280_pressure;Samples;Min_cycle;Max_cycle;Signal;HPM_P1;HPM_P2
2021/08/30 00:02:27;;;;;;;12.80;6.65;;;;;;;15.53;100.00;102254.13;4996930;28;20081;-69
2021/08/30 00:04:55;;;;;;;15.57;6.57;;;;;;;15.61;100.00;102259.25;4996726;28;20445;-69
2021/08/30 00:07:23;;;;;;;13.88;6.85;;;;;;;15.59;100.00;102258.44;4990791;28;20452;-70
2021/08/30 00:09:52;;;;;;;14.43;7.28;;;;;;;15.55;100.00;102262.16;4997079;28;20070;-71
2021/08/30 00:12:20;;;;;;;15.07;6.63;;;;;;;15.52;100.00;102260.41;4999233;28;20282;-69
2021/08/30 00:14:48;;;;;;;14.75;6.75;;;;;;;15.52;100.00;102260.41;4992584;28;20116;-69
2021/08/30 00:17:15;;;;;;;14.15;6.40;;;;;;;15.52;100.00;102259.53;4994385;28;20173;-66
2021/08/30 00:19:44;;;;;;;13.95;6.47;;;;;;;15.50;100.00;102259.59;4994249;28;20057;-66
2021/08/30 00:22:12;;;;;;;14.13;7.13;;;;;;;15.54;100.00;102252.31;4992069;28;20108;-66
2021/08/30 00:24:40;;;;;;;13.50;6.15;;;;;;;15.55;100.00;102260.34;4994698;28;20469;-66
2021/08/30 00:27:07;;;;;;;14.68;6.53;;;;;;;15.53;100.00;102262.19;4997259;28;20140;-67
2021/08/30 00:29:35;;;;;;;13.00;7.32;;;;;;;15.52;100.00;102256.84;4992382;28;21421;-66
2021/08/30 00:32:04;;;;;;;12.77;6.40;;;;;;;15.55;100.00;102262.16;4994513;28;20062;-66
2021/08/30 00:34:31;;;;;;;15.60;7.47;;;;;;;15.59;100.00;102264.69;4994927;28;20089;-66
2021/08/30 00:37:01;;;;;;;12.60;6.60;;;;;;;15.58;100.00;102265.63;4993481;28;20468;-66
2021/08/30 00:39:29;;;;;;;15.80;7.03;;;;;;;15.53;100.00;102275.66;4996557;28;20886;-66
2021/08/30 00:41:57;;;;;;;14.43;7.97;;;;;;;15.58;100.00;102270.09;4992851;28;20450;-66
2021/08/30 00:44:26;;;;;;;18.17;7.35;;;;;;;15.56;100.00;102266.59;4994111;28;20471;-67
2021/08/30 00:46:54;;;;;;;14.35;6.80;;;;;;;15.53;100.00;102272.97;4994657;28;20144;-66
2021/08/30 00:49:22;;;;;;;14.45;7.70;;;;;;;15.55;100.00;102270.22;4992541;28;20065;-66
2021/08/30 00:51:53;;;;;;;15.00;7.28;;;;;;;15.59;100.00;102274.56;4997405;28;20425;-66
2021/08/30 00:54:23;;;;;;;15.38;7.22;;;;;;;15.51;100.00;102269.44;4994081;28;20062;-66
2021/08/30 00:56:51;;;;;;;17.15;7.93;;;;;;;15.50;100.00;102265.84;4993713;28;20070;-66
2021/08/30 00:59:19;;;;;;;15.80;7.15;;;;;;;15.47;100.00;102271.31;4992647;28;20058;-67
2021/08/30 01:01:46;;;;;;;14.00;6.78;;;;;;;15.50;100.00;102268.53;4993432;28;20062;-66
2021/08/30 01:04:15;;;;;;;14.43;7.72;;;;;;;15.50;100.00;102265.84;4992398;28;20230;-66
2021/08/30 01:06:45;;;;;;;15.45;7.10;;;;;;;15.47;100.00;102273.13;4995408;28;20045;-67
2021/08/30 01:09:23;;;;;;;14.82;7.32;;;;;;;15.45;100.00;102266.91;4995048;28;20451;-66
2021/08/30 01:12:03;;;;;;;16.88;7.75;;;;;;;15.41;100.00;102268.81;4992421;28;20054;-66
2021/08/30 01:14:37;;;;;;;14.80;7.78;;;;;;;15.43;100.00;102275.03;4991818;28;20124;-66
2021/08/30 01:17:07;;;;;;;16.95;8.10;;;;;;;15.42;100.00;102273.25;4997025;28;20402;-66
2021/08/30 01:19:39;;;;;;;14.18;7.18;;;;;;;15.39;100.00;102270.69;4992592;28;20065;-66
2021/08/30 01:22:09;;;;;;;16.25;8.13;;;;;;;15.40;100.00;102282.31;4995778;28;20084;-66
2021/08/30 01:24:37;;;;;;;18.60;8.18;;;;;;;15.38;100.00;102279.66;4996164;28;20360;-66
2021/08/30 01:27:07;;;;;;;16.85;8.73;;;;;;;15.40;100.00;102287.69;4993425;28;20073;-67
2021/08/30 01:29:44;;;;;;;17.30;7.40;;;;;;;15.40;100.00;102274.25;4994310;28;20073;-66
2021/08/30 01:32:27;;;;;;;18.60;8.18;;;;;;;15.36;100.00;102284.22;4995005;28;20127;-66
2021/08/30 01:34:56;;;;;;;16.00;8.00;;;;;;;15.41;100.00;102282.28;4991600;28;20070;-66
2021/08/30 01:37:24;;;;;;;15.52;8.18;;;;;;;15.37;100.00;102277.00;4995842;28;20069;-66
2021/08/30 01:39:56;;;;;;;14.90;7.53;;;;;;;15.40;100.00;102282.31;4994223;28;20065;-66
2021/08/30 01:42:25;;;;;;;20.65;8.45;;;;;;;15.38;100.00;102282.34;4992280;28;20117;-66
2021/08/30 01:44:55;;;;;;;18.58;8.82;;;;;;;15.39;100.00;102278.75;4993389;28;20062;-68
2021/08/30 01:47:26;;;;;;;19.05;8.65;;;;;;;15.36;100.00;102278.84;4995493;28;20096;-69
2021/08/30 01:50:01;;;;;;;16.13;8.85;;;;;;;15.38;100.00;102284.16;4993026;28;20331;-69
2021/08/30 01:52:32;;;;;;;18.85;8.35;;;;;;;15.34;100.00;102280.69;4993556;28;20321;-68
2021/08/30 01:55:05;;;;;;;17.60;8.57;;;;;;;15.34;100.00;102285.16;4993092;28;20069;-69
2021/08/30 01:57:43;;;;;;;15.38;7.28;;;;;;;15.39;100.00;102277.84;4994984;28;20132;-68
2021/08/30 02:02:58;;;;;;;16.65;8.00;;;;;;;15.37;100.00;102285.97;4992436;28;20066;-69
2021/08/30 02:05:27;;;;;;;18.35;7.85;;;;;;;15.35;100.00;102276.19;4991999;28;20073;-68
2021/08/30 02:07:54;;;;;;;18.50;8.32;;;;;;;15.37;100.00;102285.09;4991455;28;20050;-69
2021/08/30 02:10:22;;;;;;;15.70;8.13;;;;;;;15.36;100.00;102286.91;4992256;28;20416;-69
2021/08/30 02:12:50;;;;;;;18.98;9.20;;;;;;;15.39;100.00;102289.50;4992882;28;20345;-69
2021/08/30 02:15:18;;;;;;;16.08;8.02;;;;;;;15.34;100.00;102288.75;4994497;28;20105;-69
2021/08/30 02:17:52;;;;;;;16.48;8.43;;;;;;;15.35;100.00;102295.88;4995044;28;20058;-70
2021/08/30 02:20:27;;;;;;;19.10;9.10;;;;;;;15.32;100.00;102286.13;4993032;28;20149;-69
2021/08/30 02:22:57;;;;;;;18.48;9.45;;;;;;;15.36;100.00;102286.00;4997922;28;20057;-69
2021/08/30 02:25:26;;;;;;;17.83;9.25;;;;;;;15.34;100.00;102279.78;4991700;28;20066;-69
2021/08/30 02:27:57;;;;;;;16.98;9.10;;;;;;;15.34;100.00;102275.31;4994782;28;20145;-69
2021/08/30 02:30:30;;;;;;;18.42;9.00;;;;;;;15.33;100.00;102270.84;4993446;28;20065;-68
2021/08/30 02:33:01;;;;;;;21.75;9.63;;;;;;;15.38;100.00;102270.72;4993281;28;20073;-70
2021/08/30 02:35:33;;;;;;;18.70;9.25;;;;;;;15.40;100.00;102274.25;4990413;28;20104;-69
2021/08/30 02:38:03;;;;;;;21.65;10.23;;;;;;;15.37;100.00;102274.31;4995118;28;20061;-69
2021/08/30 02:40:31;;;;;;;22.88;10.38;;;;;;;15.32;100.00;102261.91;4990980;28;20093;-69
2021/08/30 02:43:02;;;;;;;21.80;10.77;;;;;;;15.34;100.00;102271.72;4995526;28;20313;-69
2021/08/30 02:45:34;;;;;;;23.00;11.60;;;;;;;15.34;100.00;102266.34;4995712;28;20045;-69
2021/08/30 02:48:04;;;;;;;20.17;10.35;;;;;;;15.40;100.00;102260.78;4992922;28;20120;-70
2021/08/30 02:50:34;;;;;;;24.73;12.40;;;;;;;15.37;100.00;102260.88;4995350;28;20058;-68
2021/08/30 02:53:03;;;;;;;23.35;10.82;;;;;;;15.34;100.00;102260.97;4992185;28;20070;-68
2021/08/30 02:55:31;;;;;;;22.58;10.88;;;;;;;15.33;100.00;102254.72;4997713;28;20113;-69
2021/08/30 02:58:01;;;;;;;23.25;11.75;;;;;;;15.35;100.00;102258.22;4995375;28;20129;-66
2021/08/30 03:00:28;;;;;;;20.73;10.48;;;;;;;15.36;100.00;102260.00;4995008;28;20401;-69
2021/08/30 03:02:57;;;;;;;23.05;11.88;;;;;;;15.32;100.00;102259.22;4995377;28;20349;-70
2021/08/30 03:05:26;;;;;;;23.70;11.75;;;;;;;15.36;100.00;102253.72;4997775;28;20148;-70
2021/08/30 03:07:56;;;;;;;22.45;11.98;;;;;;;15.35;100.00;102242.09;4998385;28;20361;-70
2021/08/30 03:10:24;;;;;;;23.33;10.90;;;;;;;15.37;100.00;102248.31;4996329;28;20347;-68
2021/08/30 03:12:55;;;;;;;27.42;11.90;;;;;;;15.38;100.00;102254.59;4995493;28;20066;-68
2021/08/30 03:15:25;;;;;;;24.95;11.65;;;;;;;15.36;100.00;102243.88;4995869;28;20604;-68
2021/08/30 03:17:54;;;;;;;26.23;12.52;;;;;;;15.30;100.00;102242.22;4994546;28;20062;-68
2021/08/30 03:20:24;;;;;;;21.25;10.63;;;;;;;15.25;100.00;102237.91;4993579;28;20070;-68
2021/08/30 03:22:58;;;;;;;21.95;12.18;;;;;;;15.18;100.00;102230.97;4995736;28;20485;-68
2021/08/30 03:25:28;;;;;;;23.08;11.30;;;;;;;15.12;100.00;102226.66;4997030;28;20073;-68
2021/08/30 03:27:58;;;;;;;20.83;12.02;;;;;;;15.07;100.00;102232.16;4997973;28;20085;-67
2021/08/30 03:30:27;;;;;;;25.00;12.57;;;;;;;15.05;100.00;102223.28;5001477;28;20149;-68
2021/08/30 03:32:56;;;;;;;25.58;12.00;;;;;;;15.03;100.00;102230.47;4994302;28;20496;-68
2021/08/30 03:35:24;;;;;;;21.15;10.73;;;;;;;14.94;100.00;102231.63;4998972;28;20143;-68
2021/08/30 03:37:54;;;;;;;23.00;12.60;;;;;;;14.95;100.00;102224.47;4995238;28;20149;-69
2021/08/30 03:40:24;;;;;;;22.38;11.73;;;;;;;14.90;100.00;102224.56;4997703;28;20208;-69
2021/08/30 03:42:52;;;;;;;21.65;12.27;;;;;;;14.86;100.00;102219.31;4993132;28;20062;-68
2021/08/30 03:45:20;;;;;;;23.85;12.75;;;;;;;14.81;100.00;102221.25;4996541;28;20441;-69
2021/08/30 03:47:48;;;;;;;25.88;11.95;;;;;;;14.77;100.00;102217.78;4993032;28;20480;-69
2021/08/30 03:50:16;;;;;;;21.27;12.40;;;;;;;14.70;100.00;102222.44;4994182;28;20113;-69
2021/08/30 03:52:44;;;;;;;29.55;13.38;;;;;;;14.66;100.00;102222.56;4995675;28;20372;-69
2021/08/30 03:55:12;;;;;;;23.92;12.15;;;;;;;14.63;100.00;102220.84;4994508;28;20066;-69
2021/08/30 03:57:41;;;;;;;27.52;12.80;;;;;;;14.59;100.00;102224.53;4995692;28;20148;-68
2021/08/30 04:00:10;;;;;;;26.00;14.43;;;;;;;14.55;100.00;102223.69;4995435;28;20378;-69
2021/08/30 04:02:41;;;;;;;25.70;12.55;;;;;;;14.52;100.00;102226.50;4995425;28;20073;-69
2021/08/30 04:05:11;;;;;;;26.50;12.77;;;;;;;14.47;100.00;102219.44;4993955;28;20152;-69
2021/08/30 04:07:40;;;;;;;25.48;13.38;;;;;;;14.47;100.00;102223.03;4992919;28;20409;-69
2021/08/30 04:10:08;;;;;;;25.00;12.65;;;;;;;14.42;100.00;102230.34;4993492;28;20448;-69
2021/08/30 04:12:42;;;;;;;26.13;13.32;;;;;;;14.42;100.00;102227.66;4993746;28;20066;-69
2021/08/30 04:15:11;;;;;;;24.63;12.68;;;;;;;14.39;100.00;102235.78;4994512;28;20079;-69
2021/08/30 04:17:39;;;;;;;29.27;13.55;;;;;;;14.38;100.00;102242.06;4994858;28;20143;-69
2021/08/30 04:20:09;;;;;;;24.13;13.88;;;;;;;14.41;100.00;102242.00;4992921;28;20483;-69
2021/08/30 04:22:41;;;;;;;34.22;15.85;;;;;;;14.39;100.00;102238.47;4994164;28;20389;-68
2021/08/30 04:25:10;;;;;;;29.73;14.13;;;;;;;14.38;100.00;102244.75;4993182;28;20091;-68
2021/08/30 04:27:38;;;;;;;32.17;15.02;;;;;;;14.40;100.00;102245.59;4997333;28;20323;-68
2021/08/30 04:30:09;;;;;;;28.67;13.90;;;;;;;14.37;100.00;102235.81;4993172;28;20153;-68
2021/08/30 04:32:37;;;;;;;31.45;15.35;;;;;;;14.36;100.00;102239.41;4991680;28;20437;-69
2021/08/30 04:35:07;;;;;;;30.98;14.65;;;;;;;14.41;100.00;102231.25;4994977;28;20132;-69
2021/08/30 04:37:36;;;;;;;33.05;17.48;;;;;;;14.38;100.00;102228.63;4996638;28;20119;-68
2021/08/30 04:40:05;;;;;;;31.95;15.32;;;;;;;14.39;100.00;102230.41;4995665;28;20053;-69
2021/08/30 04:42:33;;;;;;;34.38;17.15;;;;;;;14.37;100.00;102233.13;4996903;28;20069;-69
2021/08/30 04:45:01;;;;;;;38.03;16.52;;;;;;;14.34;100.00;102233.22;4992706;28;20073;-69
2021/08/30 04:47:30;;;;;;;31.42;15.98;;;;;;;14.33;100.00;102231.44;4995483;28;20066;-66
2021/08/30 04:49:58;;;;;;;37.13;17.13;;;;;;;14.29;100.00;102236.94;4995808;28;20105;-66
2021/08/30 04:52:26;;;;;;;34.60;16.90;;;;;;;14.28;100.00;102235.16;4994609;28;20069;-66
2021/08/30 04:54:53;;;;;;;36.90;16.45;;;;;;;14.27;100.00;102239.66;4994527;28;20376;-66
2021/08/30 04:57:21;;;;;;;35.72;16.77;;;;;;;14.28;100.00;102243.22;4991381;28;20780;-66
2021/08/30 04:59:49;;;;;;;31.75;15.48;;;;;;;14.27;100.00;102236.97;4993739;28;20112;-67
2021/08/30 05:02:16;;;;;;;32.00;15.85;;;;;;;14.31;100.00;102254.75;4993874;28;20058;-66
2021/08/30 05:04:46;;;;;;;31.58;14.88;;;;;;;14.32;100.00;102253.84;4995001;28;20156;-66
2021/08/30 05:07:14;;;;;;;29.23;15.80;;;;;;;14.33;100.00;102265.47;4993280;28;20093;-66
2021/08/30 05:09:42;;;;;;;33.10;15.52;;;;;;;14.36;100.00;102263.56;4994392;28;20148;-66
2021/08/30 05:12:09;;;;;;;30.45;14.23;;;;;;;14.34;100.00;102259.19;4993027;28;20072;-66
2021/08/30 05:14:38;;;;;;;29.48;14.40;;;;;;;14.43;100.00;102264.31;4994061;28;20075;-66
2021/08/30 05:17:05;;;;;;;29.48;14.90;;;;;;;14.45;100.00;102265.16;4995173;28;20351;-66
2021/08/30 05:19:33;;;;;;;30.60;14.02;;;;;;;14.50;100.00;102273.09;4993665;28;20092;-69
2021/08/30 05:22:03;;;;;;;35.65;15.35;;;;;;;14.55;100.00;102274.72;4991585;28;20066;-69
2021/08/30 05:24:31;;;;;;;29.02;14.77;;;;;;;14.58;100.00;102279.16;4993928;28;20074;-69
2021/08/30 05:26:58;;;;;;;34.85;14.75;;;;;;;14.63;100.00;102279.06;4994141;28;20451;-69
2021/08/30 05:29:26;;;;;;;29.67;14.85;;;;;;;14.71;100.00;102272.56;4990579;28;20253;-69
2021/08/30 05:31:54;;;;;;;28.80;13.80;;;;;;;14.77;100.00;102276.88;4991128;28;20151;-69
2021/08/30 05:34:22;;;;;;;30.52;14.93;;;;;;;14.85;100.00;102274.88;4994509;28;20064;-69
2021/08/30 05:36:50;;;;;;;30.73;16.40;;;;;;;14.93;100.00;102280.03;4995790;28;20042;-68
2021/08/30 05:39:19;;;;;;;29.42;15.18;;;;;;;14.97;100.00;102286.22;4992359;28;20062;-69
2021/08/30 05:41:47;;;;;;;28.92;14.27;;;;;;;15.03;100.00;102286.03;4996238;28;20085;-69
2021/08/30 05:44:14;;;;;;;32.08;14.57;;;;;;;15.06;100.00;102285.97;4994311;28;20066;-69
2021/08/30 05:46:42;;;;;;;28.15;15.20;;;;;;;15.16;100.00;102284.78;4994376;28;20069;-69
2021/08/30 05:49:10;;;;;;;34.13;15.98;;;;;;;15.19;100.00;102289.16;4992416;28;20061;-69
2021/08/30 05:51:37;;;;;;;27.15;14.63;;;;;;;15.24;100.00;102289.94;4993602;28;20100;-69
2021/08/30 05:54:05;;;;;;;30.85;14.55;;;;;;;15.26;100.00;102288.97;4993816;28;20066;-68
2021/08/30 05:56:34;;;;;;;31.40;15.00;;;;;;;15.30;100.00;102289.75;4997554;28;20046;-66
2021/08/30 05:59:02;;;;;;;30.33;14.50;;;;;;;15.33;100.00;102284.28;4994241;28;20270;-66
2021/08/30 06:01:30;;;;;;;31.38;16.13;;;;;;;15.36;100.00;102286.91;4999171;28;20163;-66
2021/08/30 06:03:58;;;;;;;30.83;14.85;;;;;;;15.43;100.00;102296.53;4993676;28;20061;-66
2021/08/30 06:06:26;;;;;;;24.95;14.57;;;;;;;15.44;100.00;102289.34;4991684;28;20466;-66
2021/08/30 06:08:54;;;;;;;34.08;16.00;;;;;;;15.43;100.00;102291.16;4991827;28;20062;-66
2021/08/30 06:11:22;;;;;;;34.67;16.63;;;;;;;15.45;100.00;102296.50;4999059;28;20851;-66
2021/08/30 06:13:51;;;;;;;32.05;16.30;;;;;;;15.46;100.00;102293.78;4995870;28;20049;-66
2021/08/30 06:16:19;;;;;;;32.40;16.15;;;;;;;15.53;100.00;102296.25;4991295;28;20443;-66
2021/08/30 06:18:47;;;;;;;36.40;17.10;;;;;;;15.56;100.00;102291.69;4992484;28;20073;-69
2021/08/30 06:21:14;;;;;;;31.25;16.45;;;;;;;15.63;100.00;102303.13;4993029;28;20464;-66
2021/08/30 06:23:42;;;;;;;28.80;15.10;;;;;;;15.62;100.00;102299.56;4994634;28;20535;-66
2021/08/30 06:26:10;;;;;;;32.08;15.13;;;;;;;15.67;100.00;102297.63;4994576;28;20062;-66
2021/08/30 06:28:37;;;;;;;29.88;14.82;;;;;;;15.71;100.00;102298.41;5004124;28;20104;-66
2021/08/30 06:31:07;;;;;;;30.38;16.08;;;;;;;15.73;100.00;102293.84;4998142;28;20049;-66
2021/08/30 06:33:35;;;;;;;31.17;16.33;;;;;;;15.79;100.00;102307.16;5000141;28;20062;-66
2021/08/30 06:36:03;;;;;;;30.63;15.98;;;;;;;15.78;100.00;102297.34;4996895;28;20089;-66
2021/08/30 06:38:31;;;;;;;30.08;15.60;;;;;;;15.80;100.00;102299.97;5002230;28;20333;-66
2021/08/30 06:40:59;;;;;;;29.88;15.85;;;;;;;15.82;100.00;102300.81;5002648;28;20063;-66
2021/08/30 06:43:26;;;;;;;27.23;15.57;;;;;;;15.85;100.00;102298.00;4998942;28;20408;-66
2021/08/30 06:45:54;;;;;;;28.70;15.35;;;;;;;15.89;100.00;102294.31;5005522;28;20065;-66
2021/08/30 06:48:23;;;;;;;29.25;15.50;;;;;;;15.90;100.00;102295.19;5000275;28;20537;-66
2021/08/30 06:50:51;;;;;;;31.55;15.18;;;;;;;15.93;100.00;102298.66;5003826;28;20119;-66
2021/08/30 06:53:19;;;;;;;27.67;15.27;;;;;;;15.95;99.97;102302.16;4995818;28;20111;-66
2021/08/30 06:55:47;;;;;;;30.65;15.68;;;;;;;15.94;100.00;102295.03;4995795;28;20108;-66
2021/08/30 06:58:14;;;;;;;29.10;14.75;;;;;;;16.03;99.87;102300.13;4995401;28;20144;-66
2021/08/30 07:00:42;;;;;;;27.95;15.50;;;;;;;16.06;99.67;102296.47;4996519;28;20164;-67
2021/08/30 07:03:10;;;;;;;27.75;15.35;;;;;;;16.09;99.73;102303.56;4994282;28;20109;-66
2021/08/30 07:05:39;;;;;;;31.02;15.80;;;;;;;16.11;99.57;102310.66;4994739;28;20125;-67
2021/08/30 07:08:06;;;;;;;31.77;14.43;;;;;;;16.17;99.38;102305.06;4998020;28;20456;-67
2021/08/30 07:10:34;;;;;;;28.33;15.05;;;;;;;16.25;98.97;102304.81;4996833;28;20080;-67
2021/08/30 07:13:02;;;;;;;29.13;14.98;;;;;;;16.26;99.58;102306.59;4994750;28;20069;-66
2021/08/30 07:15:30;;;;;;;29.63;14.50;;;;;;;16.29;98.66;102303.78;4996315;28;20077;-66
2021/08/30 07:17:58;;;;;;;31.73;15.23;;;;;;;16.31;98.75;102309.13;4997137;28;20073;-66
2021/08/30 07:20:29;;;;;;;28.92;14.32;;;;;;;16.35;98.48;102305.41;4999407;28;20477;-66
2021/08/30 07:22:58;;;;;;;25.10;14.18;;;;;;;16.32;98.29;102298.28;4993172;28;20776;-66
2021/08/30 07:25:26;;;;;;;30.08;14.73;;;;;;;16.32;98.10;102301.00;5000453;28;20062;-66
2021/08/30 07:27:54;;;;;;;27.58;14.50;;;;;;;16.41;97.84;102300.72;4993681;28;20054;-66
2021/08/30 07:30:21;;;;;;;28.10;13.77;;;;;;;16.46;97.53;102300.53;4997420;28;20505;-66
2021/08/30 07:32:49;;;;;;;26.33;14.65;;;;;;;16.42;97.43;102302.44;4992294;28;20116;-68
2021/08/30 07:35:18;;;;;;;28.77;14.88;;;;;;;16.50;96.99;102302.19;4996006;28;20356;-68
2021/08/30 07:37:46;;;;;;;28.60;15.23;;;;;;;16.53;96.56;102293.13;4990966;28;20054;-68
2021/08/30 07:40:15;;;;;;;23.65;13.77;;;;;;;16.55;96.25;102291.25;4995860;28;20444;-68
2021/08/30 07:42:43;;;;;;;25.50;14.07;;;;;;;16.68;95.72;102308.75;4998958;28;20637;-69
2021/08/30 07:45:15;;;;;;;28.85;14.55;;;;;;;16.73;94.92;102301.41;4999756;28;21563;-68
2021/08/30 07:47:58;;;;;;;26.58;13.50;;;;;;;16.77;95.03;102303.06;5014978;28;20092;-73
2021/08/30 07:50:26;;;;;;;28.87;14.63;;;;;;;16.81;94.74;102306.53;4975328;23;20085;-71
2021/08/30 07:52:54;;;;;;;27.52;13.20;;;;;;;16.81;94.86;102318.19;4961563;23;20065;-71
2021/08/30 07:55:24;;;;;;;27.45;13.48;;;;;;;16.88;95.07;102318.88;4961244;28;20069;-71
2021/08/30 07:57:51;;;;;;;25.38;14.10;;;;;;;16.87;94.57;102317.13;4962875;28;20461;-70
2021/08/30 08:00:19;;;;;;;24.65;13.07;;;;;;;16.91;94.53;102326.00;4962859;28;20098;-70
2021/08/30 08:02:47;;;;;;;25.20;13.38;;;;;;;16.96;94.89;102326.72;4963246;28;20073;-71
2021/08/30 08:05:16;;;;;;;32.60;15.07;;;;;;;17.06;94.36;102329.94;4959902;28;20137;-71
2021/08/30 08:07:44;;;;;;;25.70;13.57;;;;;;;17.09;94.38;102328.03;4958329;28;20393;-70
2021/08/30 08:10:12;;;;;;;27.42;13.00;;;;;;;17.06;93.78;102341.63;4960656;28;20188;-71
2021/08/30 08:12:42;;;;;;;25.17;11.85;;;;;;;17.14;93.60;102334.13;4961369;28;20067;-71
2021/08/30 08:15:10;;;;;;;22.25;12.38;;;;;;;17.10;93.72;102332.50;4962272;28;20092;-71
2021/08/30 08:17:38;;;;;;;29.00;13.57;;;;;;;17.13;93.66;102329.69;4963012;28;20071;-72
2021/08/30 08:20:07;;;;;;;23.73;12.77;;;;;;;17.16;93.96;102332.28;4965375;28;20936;-71
2021/08/30 08:22:41;;;;;;;25.27;13.10;;;;;;;17.24;93.23;102334.69;4964789;28;20070;-72
2021/08/30 08:25:10;;;;;;;27.83;12.82;;;;;;;17.25;93.55;102336.47;4961438;28;20062;-72
2021/08/30 08:27:39;;;;;;;24.10;13.13;;;;;;;17.32;93.56;102337.13;4963106;28;20057;-71
2021/08/30 08:30:11;;;;;;;25.45;12.60;;;;;;;17.34;93.38;102332.53;4961365;28;20501;-71
2021/08/30 08:32:41;;;;;;;24.50;13.17;;;;;;;17.30;93.67;102331.78;4961431;28;20058;-71
2021/08/30 08:35:09;;;;;;;27.75;12.90;;;;;;;17.42;92.90;102335.84;4961869;28;20066;-71
2021/08/30 08:37:37;;;;;;;23.60;12.23;;;;;;;17.51;92.64;102326.50;4962488;28;20492;-71
2021/08/30 08:40:08;;;;;;;25.38;13.05;;;;;;;17.50;92.46;102333.75;4962913;28;20322;-71
2021/08/30 08:42:38;;;;;;;25.10;12.55;;;;;;;17.54;92.37;102332.66;4962467;28;20114;-71
2021/08/30 08:45:12;;;;;;;26.15;12.80;;;;;;;17.58;92.06;102330.72;4963949;28;20461;-71
2021/08/30 08:47:41;;;;;;;21.00;11.45;;;;;;;17.80;92.38;102327.22;4962618;28;20109;-71
2021/08/30 08:50:12;;;;;;;25.73;12.23;;;;;;;17.79;91.64;102326.31;4961502;28;20113;-71
2021/08/30 08:52:41;;;;;;;27.38;12.50;;;;;;;17.81;92.33;102328.97;4960777;28;20114;-71
2021/08/30 08:55:10;;;;;;;23.17;11.82;;;;;;;17.93;92.24;102336.63;4960835;28;20067;-71
2021/08/30 08:57:38;;;;;;;25.25;11.93;;;;;;;17.88;91.40;102331.41;4960915;28;20071;-68
2021/08/30 09:00:08;;;;;;;23.77;12.43;;;;;;;17.94;91.47;102334.81;4959705;28;20369;-69
2021/08/30 09:02:38;;;;;;;22.48;13.35;;;;;;;17.87;91.16;102331.47;4961572;28;20576;-71
2021/08/30 09:05:09;;;;;;;25.13;12.02;;;;;;;17.80;91.37;102336.19;4960614;28;20579;-71
2021/08/30 09:07:41;;;;;;;21.90;12.27;;;;;;;17.92;90.82;102329.47;4962368;28;20058;-71
2021/08/30 09:10:14;;;;;;;25.63;11.90;;;;;;;17.80;91.09;102328.09;4961534;28;20404;-71
2021/08/30 09:12:42;;;;;;;23.55;11.82;;;;;;;17.97;90.54;102332.00;4961180;28;20071;-71
2021/08/30 09:15:14;;;;;;;20.92;12.63;;;;;;;18.02;90.53;102328.16;4961141;28;20385;-71
2021/08/30 09:17:50;;;;;;;27.30;13.52;;;;;;;18.00;90.44;102331.88;4960300;28;20066;-71
2021/08/30 09:20:20;;;;;;;24.88;12.45;;;;;;;18.06;90.25;102327.09;4960695;28;20433;-71
2021/08/30 09:22:49;;;;;;;19.38;11.32;;;;;;;18.23;90.41;102334.50;4959986;28;20093;-71
2021/08/30 09:25:18;;;;;;;20.95;12.07;;;;;;;18.25;89.69;102329.03;4959928;28;20141;-71
2021/08/30 09:27:50;;;;;;;26.27;11.93;;;;;;;18.28;89.60;102328.94;4959033;28;20067;-70
2021/08/30 09:30:25;;;;;;;21.50;10.83;;;;;;;18.32;88.71;102329.69;4960191;28;20074;-71
2021/08/30 09:32:54;;;;;;;22.33;11.10;;;;;;;18.37;89.48;102328.56;4959163;28;20398;-70
2021/08/30 09:35:23;;;;;;;23.35;12.25;;;;;;;18.45;88.44;102331.81;4959484;28;20062;-71
2021/08/30 09:37:50;;;;;;;20.83;11.68;;;;;;;18.51;87.79;102325.28;4961217;28;20125;-68
2021/08/30 09:40:21;;;;;;;22.60;10.57;;;;;;;18.67;87.88;102326.38;4960050;28;20417;-68
2021/08/30 09:42:51;;;;;;;22.95;10.68;;;;;;;18.73;87.37;102329.75;4961582;28;20373;-68
2021/08/30 09:45:22;;;;;;;20.63;10.00;;;;;;;18.87;86.42;102331.94;4959706;28;20314;-68
2021/08/30 09:47:52;;;;;;;20.25;10.88;;;;;;;18.72;86.15;102330.72;4960085;28;20347;-68
2021/08/30 09:50:27;;;;;;;27.33;11.60;;;;;;;18.91;86.29;102333.53;4959051;28;20145;-68
2021/08/30 09:52:55;;;;;;;20.13;10.00;;;;;;;19.03;85.57;102323.06;4961217;28;20062;-68
2021/08/30 09:55:23;;;;;;;22.25;11.10;;;;;;;18.99;85.46;102324.13;4961941;28;20062;-68
2021/08/30 09:57:52;;;;;;;21.02;10.32;;;;;;;18.89;85.45;102330.91;4958916;28;20569;-68
2021/08/30 10:00:22;;;;;;;19.60;10.35;;;;;;;18.94;84.89;102328.00;4961042;28;20062;-68
2021/08/30 10:02:53;;;;;;;22.95;10.63;;;;;;;18.83;85.12;102323.94;4959444;28;20349;-68
2021/08/30 10:05:25;;;;;;;19.67;10.40;;;;;;;18.94;84.74;102334.28;4960934;28;20428;-68
2021/08/30 10:07:54;;;;;;;19.52;10.35;;;;;;;19.00;84.83;102325.00;4959945;28;20102;-67
2021/08/30 10:10:24;;;;;;;21.55;10.15;;;;;;;19.07;84.62;102315.69;4958521;28;20067;-67
2021/08/30 10:12:53;;;;;;;17.40;9.30;;;;;;;19.32;83.46;102320.84;4958869;28;20062;-66
2021/08/30 10:15:22;;;;;;;22.80;9.65;;;;;;;19.34;82.33;102320.78;4957877;28;20097;-69
2021/08/30 10:17:51;;;;;;;19.48;9.80;;;;;;;19.33;83.89;102325.31;4962353;28;20058;-66
2021/08/30 10:20:26;;;;;;;18.33;9.52;;;;;;;19.42;82.68;102322.19;4959227;28;20069;-69
2021/08/30 10:23:04;;;;;;;17.67;10.00;;;;;;;19.56;83.00;102326.09;4962482;28;20330;-67
2021/08/30 10:25:32;;;;;;;25.17;10.52;;;;;;;19.42;82.60;102326.72;4958676;28;20457;-69
2021/08/30 10:28:02;;;;;;;22.73;11.00;;;;;;;19.57;82.60;102317.91;4961698;28;20063;-67
2021/08/30 10:30:32;;;;;;;18.95;9.85;;;;;;;19.67;82.49;102318.34;4959706;28;20062;-67
2021/08/30 10:33:01;;;;;;;19.50;9.52;;;;;;;19.72;81.68;102327.13;4958827;28;20055;-69
2021/08/30 10:35:34;;;;;;;17.80;9.57;;;;;;;19.63;81.26;102323.97;4959028;28;20074;-69
2021/08/30 10:38:04;;;;;;;19.98;10.50;;;;;;;19.71;81.25;102324.50;4961243;28;20066;-69
2021/08/30 10:40:35;;;;;;;19.90;8.88;;;;;;;19.89;81.20;102328.22;4964075;28;20066;-66
2021/08/30 10:43:09;;;;;;;18.45;10.18;;;;;;;19.77;81.29;102330.53;4959358;28;20675;-67
2021/08/30 10:45:39;;;;;;;17.60;10.05;;;;;;;19.78;80.21;102329.59;4961410;28;20063;-67
2021/08/30 10:48:10;;;;;;;19.92;9.77;;;;;;;19.73;81.10;102334.31;4960301;28;20389;-68
2021/08/30 10:50:41;;;;;;;18.95;9.63;;;;;;;19.60;80.37;102325.88;4962483;28;20066;-67
2021/08/30 10:53:15;;;;;;;17.35;9.07;;;;;;;19.80;80.59;102331.34;4960526;28;20054;-68
2021/08/30 10:55:46;;;;;;;19.77;9.18;;;;;;;19.68;79.99;102333.66;4960599;28;20062;-68
2021/08/30 10:58:19;;;;;;;20.52;9.52;;;;;;;19.81;80.42;102333.13;4958563;28;20067;-68
2021/08/30 11:00:49;;;;;;;20.27;9.98;;;;;;;19.94;79.63;102329.75;4956968;28;20093;-68
2021/08/30 11:03:32;;;;;;;21.48;10.50;;;;;;;20.18;79.10;102332.22;4960645;28;20326;-71
2021/08/30 11:06:04;;;;;;;21.75;9.43;;;;;;;19.95;78.91;102323.38;4959254;28;20403;-71
2021/08/30 11:08:32;;;;;;;19.25;9.32;;;;;;;19.95;79.94;102327.91;4962318;28;20503;-71
2021/08/30 11:11:15;;;;;;;25.38;10.90;;;;;;;19.85;81.47;102330.16;4959429;28;20052;-70
2021/08/30 11:13:56;;;;;;;21.95;10.73;;;;;;;19.78;81.20;102331.41;4961238;28;20062;-72
2021/08/30 11:16:25;;;;;;;23.10;11.00;;;;;;;19.65;82.03;102332.91;4963777;28;20047;-71
2021/08/30 11:18:55;;;;;;;19.85;10.88;;;;;;;19.99;81.63;102334.94;4962495;28;20066;-71
2021/08/30 11:21:47;;;;;;;23.15;10.63;;;;;;;20.56;79.55;102323.13;4964445;28;20329;-71